Time;durP1;ratioP1;P1;durP2;ratioP2;P2;SDS_P1;SDS_P2;PMS_P1;PMS_P2;Temp;Humidity;BMP_temperature;BMP_pressure;BME280_temperature;BME280_humidity;BME280_pressure;Samples;Min_cycle;Max_cycle;Signal;HPM_P1;HPM_P2
2022/01/18 00:02:02;;;;;;;;;;;21.60;45.40;;;;;;5135485;27;19924;-45
2022/01/18 00:04:30;;;;;;;;;;;21.60;45.40;;;;;;5135071;27;19931;-45
2022/01/18 00:06:56;;;;;;;;;;;21.60;45.40;;;;;;5134349;27;20006;-42
2022/01/18 00:09:27;;;;;;;;;;;21.60;45.40;;;;;;5135200;27;19959;-40
2022/01/18 00:12:12;;;;;;;;;;;21.70;45.50;;;;;;5135963;27;19931;-41
2022/01/18 00:14:43;;;;;;;;;;;21.60;45.40;;;;;;5135055;27;20390;-42
2022/01/18 00:17:39;;;;;;;;;;;21.60;45.40;;;;;;5135584;27;20324;-46
2022/01/18 00:20:03;;;;;;;;;;;21.60;45.40;;;;;;5133664;27;19972;-43
2022/01/18 00:22:31;;;;;;;;;;;21.60;45.40;;;;;;5133572;27;19970;-45
2022/01/18 00:25:00;;;;;;;;;;;21.60;45.40;;;;;;5135183;27;19972;-44
2022/01/18 00:27:27;;;;;;;;;;;21.60;45.40;;;;;;5134836;27;19979;-43
2022/01/18 00:30:09;;;;;;;;;;;21.60;45.40;;;;;;5135112;27;19924;-41
2022/01/18 00:32:57;;;;;;;;;;;21.60;45.50;;;;;;5134816;27;19968;-41
2022/01/18 00:35:25;;;;;;;;;;;21.60;46.00;;;;;;5117804;27;19924;-43
2022/01/18 00:37:55;;;;;;;;;;;21.60;45.50;;;;;;5123583;28;20330;-44
2022/01/18 00:40:22;;;;;;;;;;;21.60;45.40;;;;;;5134676;28;20405;-41
2022/01/18 00:42:49;;;;;;;;;;;21.60;45.50;;;;;;5134920;28;20275;-41
2022/01/18 00:45:16;;;;;;;;;;;21.60;45.50;;;;;;5134937;28;19976;-40
2022/01/18 00:47:43;;;;;;;;;;;21.60;45.50;;;;;;5134656;28;20375;-45
2022/01/18 00:50:10;;;;;;;;;;;21.60;45.50;;;;;;5134861;27;19930;-40
2022/01/18 00:52:42;;;;;;;;;;;21.60;45.50;;;;;;5137437;27;20425;-40
2022/01/18 00:55:10;;;;;;;;;;;21.60;45.50;;;;;;5138836;27;20386;-40
2022/01/18 00:57:37;;;;;;;;;;;21.60;45.50;;;;;;5139060;27;19976;-42
2022/01/18 01:00:05;;;;;;;;;;;21.60;45.50;;;;;;5139054;27;19930;-39
2022/01/18 01:02:32;;;;;;;;;;;21.60;45.50;;;;;;5138592;27;20027;-42
2022/01/18 01:04:59;;;;;;;;;;;21.60;45.50;;;;;;5137995;27;19973;-41
2022/01/18 01:07:26;;;;;;;;;;;21.50;45.40;;;;;;5137549;27;19964;-41
2022/01/18 01:09:53;;;;;;;;;;;21.60;45.50;;;;;;5138866;27;19969;-43
2022/01/18 01:12:23;;;;;;;;;;;21.60;45.50;;;;;;5138784;27;19972;-41
2022/01/18 01:14:52;;;;;;;;;;;21.50;45.40;;;;;;5138448;27;19952;-43
2022/01/18 01:44:58;;;;;;;;;;;21.50;45.50;;;;;;5138240;27;19923;-40
2022/01/18 01:47:34;;;;;;;;;;;21.50;45.50;;;;;;5137827;27;19924;-40
2022/01/18 01:50:15;;;;;;;;;;;21.50;45.50;;;;;;5137049;27;19976;-39
2022/01/18 01:52:42;;;;;;;;;;;21.50;45.50;;;;;;5135442;27;20374;-42
2022/01/18 01:55:10;;;;;;;;;;;21.50;45.50;;;;;;5117124;28;19976;-43
2022/01/18 01:57:37;;;;;;;;;;;21.50;45.50;;;;;;5117395;28;20010;-40
2022/01/18 02:00:09;;;;;;;;;;;21.50;45.50;;;;;;5117038;28;19976;-40
2022/01/18 02:02:36;;;;;;;;;;;21.50;45.50;;;;;;5115751;28;19931;-45
2022/01/18 02:05:05;;;;;;;;;;;21.50;45.50;;;;;;5121137;27;19966;-47
2022/01/18 02:07:32;;;;;;;;;;;21.50;45.50;;;;;;5137438;27;19924;-46
2022/01/18 02:09:59;;;;;;;;;;;21.50;45.50;;;;;;5136187;27;19979;-43
2022/01/18 02:12:26;;;;;;;;;;;21.50;45.50;;;;;;5137358;27;20436;-42
2022/01/18 02:14:58;;;;;;;;;;;21.50;45.50;;;;;;5137353;27;19923;-46
2022/01/18 02:22:58;;;;;;;;;;;21.50;45.60;;;;;;5135936;27;19924;-42
2022/01/18 02:25:25;;;;;;;;;;;21.50;45.60;;;;;;5137426;27;19931;-40
2022/01/18 02:27:52;;;;;;;;;;;21.50;45.60;;;;;;5137380;27;20279;-42
2022/01/18 02:30:19;;;;;;;;;;;21.50;45.60;;;;;;5137322;27;19996;-41
2022/01/18 02:32:46;;;;;;;;;;;21.50;45.60;;;;;;5136966;27;19967;-40
2022/01/18 02:35:13;;;;;;;;;;;21.50;45.60;;;;;;5136466;27;19934;-40
2022/01/18 02:37:40;;;;;;;;;;;21.50;45.60;;;;;;5137164;27;19928;-40
2022/01/18 02:40:08;;;;;;;;;;;21.50;45.60;;;;;;5135718;27;19978;-39
2022/01/18 02:42:44;;;;;;;;;;;21.50;45.60;;;;;;5136723;27;19923;-39
2022/01/18 02:45:11;;;;;;;;;;;21.50;45.60;;;;;;5137050;27;19927;-40
2022/01/18 02:47:38;;;;;;;;;;;21.50;45.60;;;;;;5136988;27;19924;-43
2022/01/18 02:50:05;;;;;;;;;;;21.50;45.60;;;;;;5136339;27;19923;-40
2022/01/18 02:52:32;;;;;;;;;;;21.40;45.50;;;;;;5136183;27;19972;-40
2022/01/18 02:54:59;;;;;;;;;;;21.40;45.50;;;;;;5135351;27;19923;-39
2022/01/18 02:57:26;;;;;;;;;;;21.40;45.50;;;;;;5136774;27;19972;-40
2022/01/18 03:00:44;;;;;;;;;;;21.40;46.10;;;;;;5136733;27;19930;-49
2022/01/18 03:05:30;;;;;;;;;;;21.40;45.50;;;;;;5135597;27;19953;-43
2022/01/18 03:07:57;;;;;;;;;;;21.40;45.50;;;;;;5136567;27;19923;-46
2022/01/18 03:10:24;;;;;;;;;;;21.40;45.60;;;;;;5135122;27;19923;-48
2022/01/18 03:12:51;;;;;;;;;;;21.40;45.60;;;;;;5136210;27;19973;-43
2022/01/18 03:15:18;;;;;;;;;;;21.40;45.60;;;;;;5136397;27;19923;-46
2022/01/18 03:17:45;;;;;;;;;;;21.40;45.60;;;;;;5136100;27;19924;-48
2022/01/18 03:20:15;;;;;;;;;;;21.40;45.60;;;;;;5135769;27;19937;-43
2022/01/18 03:22:42;;;;;;;;;;;21.40;45.60;;;;;;5134966;27;19974;-47
2022/01/18 03:30:27;;;;;;;;;;;21.40;45.60;;;;;;5136221;27;20365;-44
2022/01/18 03:32:54;;;;;;;;;;;21.40;45.60;;;;;;5136095;27;19923;-40
2022/01/18 03:35:23;;;;;;;;;;;21.40;45.60;;;;;;5136034;27;20332;-43
2022/01/18 03:37:50;;;;;;;;;;;21.40;45.60;;;;;;5134890;27;20421;-41
2022/01/18 03:40:17;;;;;;;;;;;21.40;45.60;;;;;;5121814;27;19986;-42
2022/01/18 03:42:47;;;;;;;;;;;21.40;45.60;;;;;;5115295;28;19992;-43
2022/01/18 03:45:16;;;;;;;;;;;21.40;45.60;;;;;;5114978;28;19927;-42
2022/01/18 03:47:44;;;;;;;;;;;21.40;45.60;;;;;;5115281;28;20344;-43
2022/01/18 03:50:12;;;;;;;;;;;21.40;45.60;;;;;;5114760;28;19923;-40
2022/01/18 03:52:40;;;;;;;;;;;21.40;45.60;;;;;;5114522;28;20390;-42
2022/01/18 03:55:09;;;;;;;;;;;21.40;45.60;;;;;;5125235;27;19928;-41
2022/01/18 03:57:36;;;;;;;;;;;21.40;45.60;;;;;;5135603;27;19974;-42
2022/01/18 04:00:06;;;;;;;;;;;21.40;45.60;;;;;;5135547;27;20290;-39
2022/01/18 04:02:33;;;;;;;;;;;21.40;45.60;;;;;;5135337;27;20014;-39
2022/01/18 04:05:02;;;;;;;;;;;21.40;45.60;;;;;;5135170;27;19923;-40
2022/01/18 04:07:29;;;;;;;;;;;21.40;45.60;;;;;;5134169;27;20018;-40
2022/01/18 04:09:56;;;;;;;;;;;21.40;45.60;;;;;;5134008;27;19962;-40
2022/01/18 04:12:23;;;;;;;;;;;21.40;45.60;;;;;;5135049;27;19945;-40
2022/01/18 04:14:50;;;;;;;;;;;21.40;45.60;;;;;;5135345;27;19970;-40
2022/01/18 04:28:02;;;;;;;;;;;21.40;45.70;;;;;;5134903;27;20398;-40
2022/01/18 04:30:29;;;;;;;;;;;21.30;45.60;;;;;;5134877;27;19946;-39
2022/01/18 04:32:57;;;;;;;;;;;21.30;45.60;;;;;;5134778;27;20018;-42
2022/01/18 04:35:24;;;;;;;;;;;21.30;45.60;;;;;;5134731;27;20387;-40
2022/01/18 04:37:51;;;;;;;;;;;21.30;45.60;;;;;;5134100;27;19938;-40
2022/01/18 04:40:25;;;;;;;;;;;21.30;45.60;;;;;;5133897;28;19947;-41
2022/01/18 04:51:11;;;;;;;;;;;21.30;45.60;;;;;;5051599;28;19979;-42
2022/01/18 04:53:42;;;;;;;;;;;21.30;45.60;;;;;;5050436;28;19983;-41
2022/01/18 04:56:15;;;;;;;;;;;21.30;45.60;;;;;;5037061;28;19932;-40
2022/01/18 04:58:42;;;;;;;;;;;21.30;45.60;;;;;;5031527;28;19968;-43
2022/01/18 05:01:10;;;;;;;;;;;21.30;45.60;;;;;;5031456;28;19960;-40
2022/01/18 05:03:37;;;;;;;;;;;21.30;45.70;;;;;;5031616;28;19925;-40
2022/01/18 05:06:11;;;;;;;;;;;21.30;45.70;;;;;;5031404;28;19925;-40
2022/01/18 05:08:39;;;;;;;;;;;21.30;45.70;;;;;;5047964;28;19925;-42
2022/01/18 05:11:09;;;;;;;;;;;21.30;45.70;;;;;;5038608;28;19971;-41
2022/01/18 05:21:32;;;;;;;;;;;21.30;45.70;;;;;;5055456;28;20010;-43
2022/01/18 05:23:59;;;;;;;;;;;21.30;45.70;;;;;;5131939;28;19928;-42
2022/01/18 05:26:28;;;;;;;;;;;21.30;45.70;;;;;;5133475;28;19923;-42
2022/01/18 05:28:57;;;;;;;;;;;21.30;45.70;;;;;;5134243;28;19967;-41
2022/01/18 05:31:25;;;;;;;;;;;21.30;45.70;;;;;;5134243;28;19927;-42
2022/01/18 05:33:52;;;;;;;;;;;21.30;45.70;;;;;;5134532;28;20006;-42
2022/01/18 05:36:19;;;;;;;;;;;21.30;45.70;;;;;;5135384;27;19966;-43
2022/01/18 05:38:46;;;;;;;;;;;21.30;45.70;;;;;;5137278;27;19923;-41
2022/01/18 05:41:13;;;;;;;;;;;21.30;45.70;;;;;;5137205;27;20383;-40
2022/01/18 05:43:40;;;;;;;;;;;21.30;46.30;;;;;;5137863;27;20356;-41
2022/01/18 05:46:07;;;;;;;;;;;21.30;45.70;;;;;;5139037;27;19927;-42
2022/01/18 05:48:34;;;;;;;;;;;21.30;45.70;;;;;;5137889;27;20027;-45
2022/01/18 05:51:01;;;;;;;;;;;21.30;45.70;;;;;;5137671;27;19930;-40
2022/01/18 05:53:30;;;;;;;;;;;21.30;45.70;;;;;;5136824;27;19924;-39
2022/01/18 05:55:58;;;;;;;;;;;21.30;45.70;;;;;;5136659;27;20332;-39
2022/01/18 05:58:25;;;;;;;;;;;21.30;45.70;;;;;;5137965;27;20010;-39
2022/01/18 06:00:53;;;;;;;;;;;21.30;45.70;;;;;;5137903;27;19923;-42
2022/01/18 06:03:32;;;;;;;;;;;21.30;45.80;;;;;;5137490;27;19923;-42
2022/01/18 06:08:45;;;;;;;;;;;21.30;45.70;;;;;;5124706;27;20010;-44
2022/01/18 06:11:12;;;;;;;;;;;21.20;45.70;;;;;;5123657;27;19979;-39
2022/01/18 06:13:39;;;;;;;;;;;21.30;45.70;;;;;;5137304;27;20394;-50
2022/01/18 06:16:06;;;;;;;;;;;21.20;45.70;;;;;;5137594;27;19959;-49
2022/01/18 06:18:33;;;;;;;;;;;21.20;45.70;;;;;;5137209;27;19977;-42
2022/01/18 06:21:01;;;;;;;;;;;21.20;45.70;;;;;;5136955;27;19923;-51
2022/01/18 06:23:28;;;;;;;;;;;21.20;45.70;;;;;;5136123;27;19930;-47
2022/01/18 06:25:55;;;;;;;;;;;21.20;45.70;;;;;;5135950;27;19927;-41
2022/01/18 06:28:22;;;;;;;;;;;21.20;45.70;;;;;;5137111;27;20393;-42
2022/01/18 06:30:49;;;;;;;;;;;21.20;45.70;;;;;;5136972;27;19924;-44
2022/01/18 06:33:16;;;;;;;;;;;21.20;45.70;;;;;;5138065;27;19930;-46
2022/01/18 06:35:43;;;;;;;;;;;21.20;46.30;;;;;;5137212;27;19931;-41
2022/01/18 06:38:12;;;;;;;;;;;21.20;45.70;;;;;;5131174;27;20406;-47
2022/01/18 06:40:39;;;;;;;;;;;21.20;45.70;;;;;;5116050;28;20014;-44
2022/01/18 06:43:06;;;;;;;;;;;21.20;45.70;;;;;;5116233;28;19928;-43
2022/01/18 06:45:35;;;;;;;;;;;21.20;45.70;;;;;;5116455;28;20333;-40
2022/01/18 06:48:02;;;;;;;;;;;21.20;45.70;;;;;;5115445;28;19924;-46
2022/01/18 06:50:29;;;;;;;;;;;21.20;45.70;;;;;;5115899;28;19924;-40
2022/01/18 06:52:56;;;;;;;;;;;21.20;45.70;;;;;;5116369;27;19973;-44
2022/01/18 06:55:23;;;;;;;;;;;21.20;45.70;;;;;;5136751;27;19923;-39
2022/01/18 06:57:50;;;;;;;;;;;21.20;45.80;;;;;;5135726;27;19927;-44
2022/01/18 07:00:17;;;;;;;;;;;21.20;45.70;;;;;;5118561;27;19946;-40
2022/01/18 07:02:44;;;;;;;;;;;21.20;45.70;;;;;;5136733;27;20294;-41
2022/01/18 07:05:11;;;;;;;;;;;21.20;45.70;;;;;;5136358;27;20006;-40
2022/01/18 07:07:39;;;;;;;;;;;21.20;45.70;;;;;;5118132;27;19923;-41
2022/01/18 07:10:07;;;;;;;;;;;21.20;45.70;;;;;;5135485;27;19962;-41
2022/01/18 07:12:35;;;;;;;;;;;21.20;45.70;;;;;;5135025;27;19977;-42
2022/01/18 07:15:08;;;;;;;;;;;21.20;46.30;;;;;;5136452;27;19924;-40
2022/01/18 07:17:36;;;;;;;;;;;21.20;45.70;;;;;;5136154;27;19923;-41
2022/01/18 07:20:05;;;;;;;;;;;21.20;45.70;;;;;;5135871;27;19927;-43
2022/01/18 07:22:32;;;;;;;;;;;21.20;45.80;;;;;;5136147;27;20335;-45
2022/01/18 07:25:00;;;;;;;;;;;21.20;45.70;;;;;;5135402;27;20343;-40
2022/01/18 07:27:26;;;;;;;;;;;21.20;45.70;;;;;;5135187;27;19946;-47
2022/01/18 07:29:53;;;;;;;;;;;21.20;45.70;;;;;;5135853;27;19924;-47
2022/01/18 07:32:20;;;;;;;;;;;21.20;45.70;;;;;;5135756;27;20023;-44
2022/01/18 07:34:55;;;;;;;;;;;21.20;45.70;;;;;;5135701;27;20010;-42
2022/01/18 07:37:23;;;;;;;;;;;21.20;45.70;;;;;;5135757;27;19923;-44
2022/01/18 07:39:51;;;;;;;;;;;21.20;45.70;;;;;;5134853;27;19980;-47
2022/01/18 07:42:19;;;;;;;;;;;21.20;45.70;;;;;;5134523;27;20014;-46
2022/01/18 07:44:46;;;;;;;;;;;21.20;45.70;;;;;;5117303;27;20006;-45
2022/01/18 07:47:13;;;;;;;;;;;21.20;45.60;;;;;;5135757;27;19997;-46
2022/01/18 07:49:44;;;;;;;;;;;21.20;45.60;;;;;;5136346;27;19972;-42
2022/01/18 07:52:11;;;;;;;;;;;21.20;45.60;;;;;;5135088;27;19927;-44
2022/01/18 07:54:38;;;;;;;;;;;21.20;45.60;;;;;;5134982;27;19924;-41
2022/01/18 07:57:14;;;;;;;;;;;21.20;45.60;;;;;;5134530;27;19927;-43
2022/01/18 07:59:42;;;;;;;;;;;21.20;46.20;;;;;;5134824;27;20009;-43
2022/01/18 08:02:09;;;;;;;;;;;21.20;45.60;;;;;;5135225;27;19963;-49
2022/01/18 08:04:36;;;;;;;;;;;21.20;45.50;;;;;;5135142;27;19930;-45
2022/01/18 08:07:03;;;;;;;;;;;21.20;45.60;;;;;;5135181;27;19953;-44
2022/01/18 08:09:30;;;;;;;;;;;21.20;45.60;;;;;;5134354;27;19927;-43
2022/01/18 08:11:57;;;;;;;;;;;21.20;45.60;;;;;;5134171;27;19935;-47
2022/01/18 08:14:27;;;;;;;;;;;21.20;45.50;;;;;;5135290;27;20022;-44
2022/01/18 08:17:00;;;;;;;;;;;21.20;45.60;;;;;;5135020;27;20405;-43
2022/01/18 08:19:28;;;;;;;;;;;21.20;45.50;;;;;;5135083;27;19966;-45
2022/01/18 08:21:56;;;;;;;;;;;21.20;45.50;;;;;;5116596;27;20379;-40
2022/01/18 08:24:24;;;;;;;;;;;21.30;45.60;;;;;;5134312;27;19930;-42
2022/01/18 08:26:50;;;;;;;;;;;21.20;45.50;;;;;;5134272;27;19967;-41
2022/01/18 08:29:17;;;;;;;;;;;21.30;45.60;;;;;;5135019;27;19976;-41
2022/01/18 08:32:05;;;;;;;;;;;21.20;45.50;;;;;;5134819;27;19962;-45
2022/01/18 08:34:32;;;;;;;;;;;21.30;45.50;;;;;;5134761;27;19966;-40
2022/01/18 08:36:59;;;;;;;;;;;21.30;45.50;;;;;;5135075;27;19923;-42
2022/01/18 08:39:26;;;;;;;;;;;21.30;45.50;;;;;;5130457;27;20329;-43
2022/01/18 08:41:54;;;;;;;;;;;21.30;45.50;;;;;;5114068;28;20023;-41
2022/01/18 08:44:21;;;;;;;;;;;21.30;45.40;;;;;;5133853;28;20428;-43
2022/01/18 08:46:48;;;;;;;;;;;21.30;45.40;;;;;;5134610;28;19953;-43
2022/01/18 08:49:15;;;;;;;;;;;21.30;45.40;;;;;;5134875;28;20025;-43
2022/01/18 08:51:42;;;;;;;;;;;21.30;45.40;;;;;;5128397;28;19993;-44
2022/01/18 08:54:09;;;;;;;;;;;21.30;45.40;;;;;;5134255;28;19923;-42
2022/01/18 08:56:36;;;;;;;;;;;21.30;45.30;;;;;;5133800;28;19923;-43
2022/01/18 08:59:23;;;;;;;;;;;21.30;45.30;;;;;;5133604;28;20290;-44
2022/01/18 09:01:51;;;;;;;;;;;21.30;45.30;;;;;;5134449;28;19953;-39
2022/01/18 09:04:20;;;;;;;;;;;21.30;45.30;;;;;;5134744;28;20309;-43
2022/01/18 09:06:50;;;;;;;;;;;21.30;45.30;;;;;;5116432;28;19923;-43
2022/01/18 09:09:18;;;;;;;;;;;21.30;45.20;;;;;;5134720;28;20333;-42
2022/01/18 09:11:46;;;;;;;;;;;21.30;45.20;;;;;;5136008;27;20267;-45
2022/01/18 09:14:13;;;;;;;;;;;21.40;45.30;;;;;;5137622;27;19930;-41
2022/01/18 09:16:41;;;;;;;;;;;21.40;45.90;;;;;;5138628;27;19927;-43
2022/01/18 09:19:08;;;;;;;;;;;21.40;45.20;;;;;;5137955;27;19970;-40
2022/01/18 09:21:35;;;;;;;;;;;21.40;45.20;;;;;;5137939;27;19948;-40
2022/01/18 09:24:03;;;;;;;;;;;21.40;45.10;;;;;;5120326;27;19924;-39
2022/01/18 09:26:30;;;;;;;;;;;21.40;45.10;;;;;;5137417;27;19935;-42
2022/01/18 09:28:57;;;;;;;;;;;21.40;45.00;;;;;;5137469;27;19924;-42
2022/01/18 09:31:24;;;;;;;;;;;21.50;45.00;;;;;;5138510;27;20335;-48
2022/01/18 09:33:51;;;;;;;;;;;21.50;45.00;;;;;;5138372;27;19923;-49
2022/01/18 09:36:18;;;;;;;;;;;21.50;45.00;;;;;;5138302;27;20055;-47
2022/01/18 09:38:45;;;;;;;;;;;21.50;44.90;;;;;;5137956;27;19985;-50
2022/01/18 09:41:14;;;;;;;;;;;21.50;44.90;;;;;;5137413;27;19928;-43
2022/01/18 09:43:41;;;;;;;;;;;21.50;44.80;;;;;;5137073;27;19949;-41
2022/01/18 09:46:08;;;;;;;;;;;21.50;44.80;;;;;;5138209;27;19931;-40
2022/01/18 09:48:35;;;;;;;;;;;21.60;44.80;;;;;;5138137;27;20282;-41
2022/01/18 09:51:03;;;;;;;;;;;21.60;44.70;;;;;;5137617;27;19923;-42
2022/01/18 09:53:30;;;;;;;;;;;21.60;44.70;;;;;;5138022;27;19928;-42
2022/01/18 09:55:57;;;;;;;;;;;21.60;44.70;;;;;;5136963;27;19930;-40
2022/01/18 09:58:24;;;;;;;;;;;21.60;44.60;;;;;;5132134;27;19930;-43
2022/01/18 10:00:52;;;;;;;;;;;21.70;44.70;;;;;;5117044;28;20439;-42
2022/01/18 10:03:46;;;;;;;;;;;21.70;44.60;;;;;;5117358;28;20327;-40
2022/01/18 10:06:17;;;;;;;;;;;21.70;44.50;;;;;;5112638;28;19977;-43
2022/01/18 10:08:46;;;;;;;;;;;21.70;44.50;;;;;;5117117;28;19924;-43
2022/01/18 10:11:16;;;;;;;;;;;21.70;44.40;;;;;;5126242;27;19970;-47
2022/01/18 10:13:49;;;;;;;;;;;21.70;44.40;;;;;;5136231;27;20023;-45
2022/01/18 10:16:22;;;;;;;;;;;21.80;44.50;;;;;;5138436;27;19962;-42
2022/01/18 10:18:52;;;;;;;;;;;21.80;44.50;;;;;;5137530;27;19949;-41
2022/01/18 10:21:22;;;;;;;;;;;21.80;44.40;;;;;;5137598;27;19931;-40
2022/01/18 10:23:54;;;;;;;;;;;21.80;44.30;;;;;;5135354;27;20434;-40
2022/01/18 10:26:22;;;;;;;;;;;21.80;44.30;;;;;;5136218;27;20435;-41
2022/01/18 10:29:00;;;;;;;;;;;21.80;44.30;;;;;;5135965;27;19924;-41
2022/01/18 10:31:29;;;;;;;;;;;21.90;44.30;;;;;;5136965;27;19972;-42
2022/01/18 10:34:13;;;;;;;;;;;21.90;44.20;;;;;;5136900;27;20416;-41
2022/01/18 10:37:00;;;;;;;;;;;21.90;44.20;;;;;;5137229;27;19973;-42
2022/01/18 10:39:34;;;;;;;;;;;21.90;44.20;;;;;;5136912;27;19931;-42
2022/01/18 10:42:13;;;;;;;;;;;21.90;44.70;;;;;;5136371;27;19992;-41
2022/01/18 10:44:40;;;;;;;;;;;21.90;44.10;;;;;;5124315;27;20004;-42
2022/01/18 10:47:07;;;;;;;;;;;22.00;44.10;;;;;;5116513;28;20436;-41
2022/01/18 10:49:44;;;;;;;;;;;22.00;44.10;;;;;;5116490;28;20345;-41
2022/01/18 10:52:15;;;;;;;;;;;22.00;44.10;;;;;;5099342;28;19923;-42
2022/01/18 10:54:46;;;;;;;;;;;22.00;44.10;;;;;;5116340;28;20332;-41
2022/01/18 10:57:16;;;;;;;;;;;22.00;44.00;;;;;;5129802;27;20331;-44
2022/01/18 10:59:43;;;;;;;;;;;22.00;44.00;;;;;;5135413;27;19923;-43
2022/01/18 11:02:17;;;;;;;;;;;22.10;44.10;;;;;;5136410;27;19927;-43
2022/01/18 11:04:51;;;;;;;;;;;22.00;43.90;;;;;;5136298;27;19974;-43
2022/01/18 11:07:20;;;;;;;;;;;22.10;44.00;;;;;;5136671;27;20290;-43
2022/01/18 11:09:48;;;;;;;;;;;22.10;43.90;;;;;;5136136;27;20026;-43
2022/01/18 11:12:15;;;;;;;;;;;22.10;43.90;;;;;;5135439;27;19977;-43
2022/01/18 11:14:49;;;;;;;;;;;22.10;43.90;;;;;;5134902;27;19963;-43
2022/01/18 11:17:23;;;;;;;;;;;22.10;43.90;;;;;;5136471;27;19959;-43
2022/01/18 11:19:52;;;;;;;;;;;22.10;43.90;;;;;;5136091;27;20298;-44
2022/01/18 11:22:23;;;;;;;;;;;22.10;43.80;;;;;;5135778;27;19927;-43
2022/01/18 11:24:54;;;;;;;;;;;22.10;43.80;;;;;;5136095;27;19931;-43
2022/01/18 11:27:21;;;;;;;;;;;22.10;43.80;;;;;;5123306;27;19973;-45
2022/01/18 11:29:49;;;;;;;;;;;22.10;43.80;;;;;;5123353;27;19923;-46
2022/01/18 11:32:16;;;;;;;;;;;22.20;43.80;;;;;;5135688;27;20344;-42
2022/01/18 11:34:55;;;;;;;;;;;22.20;43.80;;;;;;5135514;27;19923;-41
2022/01/18 11:37:40;;;;;;;;;;;22.20;43.80;;;;;;5135978;27;19928;-41
2022/01/18 11:40:09;;;;;;;;;;;22.20;43.80;;;;;;5135933;27;20010;-41
2022/01/18 11:42:57;;;;;;;;;;;22.20;43.70;;;;;;5116992;27;19970;-41
2022/01/18 11:45:23;;;;;;;;;;;22.20;43.70;;;;;;5134469;27;20018;-43
2022/01/18 11:48:14;;;;;;;;;;;22.20;43.70;;;;;;5135881;27;19943;-41
2022/01/18 11:51:00;;;;;;;;;;;22.20;43.60;;;;;;5122458;27;19927;-44
2022/01/18 11:53:38;;;;;;;;;;;22.20;43.70;;;;;;5135576;27;20010;-42
2022/01/18 11:56:08;;;;;;;;;;;22.20;43.70;;;;;;5135408;27;19923;-44
2022/01/18 11:58:35;;;;;;;;;;;22.20;43.60;;;;;;5134607;27;20383;-44
2022/01/18 12:01:03;;;;;;;;;;;22.20;43.60;;;;;;5134482;27;20005;-40
2022/01/18 12:03:32;;;;;;;;;;;22.20;43.60;;;;;;5135808;27;19992;-40
2022/01/18 12:06:00;;;;;;;;;;;22.30;43.60;;;;;;5135443;27;19982;-43
2022/01/18 12:08:30;;;;;;;;;;;22.30;43.60;;;;;;5135135;27;19968;-40
2022/01/18 12:10:57;;;;;;;;;;;22.30;43.60;;;;;;5135453;27;19923;-42
2022/01/18 12:13:26;;;;;;;;;;;22.30;43.60;;;;;;5117511;27;19924;-43
2022/01/18 12:15:56;;;;;;;;;;;22.30;43.60;;;;;;5127817;27;19969;-41
2022/01/18 12:18:27;;;;;;;;;;;22.30;43.60;;;;;;5135357;27;19923;-42
2022/01/18 12:20:58;;;;;;;;;;;22.30;43.60;;;;;;5134776;27;19986;-42
2022/01/18 12:23:27;;;;;;;;;;;22.30;43.50;;;;;;5135084;27;19955;-41
2022/01/18 12:26:10;;;;;;;;;;;22.30;43.60;;;;;;5135058;27;19968;-40
2022/01/18 12:29:08;;;;;;;;;;;22.30;43.50;;;;;;5134166;27;19977;-40
2022/01/18 12:34:33;;;;;;;;;;;22.30;44.20;;;;;;5134807;27;19976;-40
2022/01/18 12:37:20;;;;;;;;;;;22.30;43.60;;;;;;5116517;28;20379;-41
2022/01/18 12:39:50;;;;;;;;;;;22.30;43.60;;;;;;5135050;27;19923;-42
2022/01/18 12:44:20;;;;;;;;;;;22.30;43.60;;;;;;5129900;28;20058;-42
2022/01/18 12:45:16;;;;;;;;;;;22.30;43.50;;;;;;5118102;28;20010;-43
2022/01/18 12:47:53;;;;;;;;;;;22.30;43.50;;;;;;5134221;28;19945;-43
2022/01/18 12:50:40;;;;;;;;;;;22.30;43.50;;;;;;5134624;28;19974;-40
2022/01/18 12:53:08;;;;;;;;;;;22.40;43.60;;;;;;5134385;28;19927;-50
2022/01/18 12:55:48;;;;;;;;;;;22.40;43.60;;;;;;5134925;28;19923;-46
2022/01/18 12:58:15;;;;;;;;;;;22.30;43.50;;;;;;5133832;28;19938;-49
2022/01/18 13:01:03;;;;;;;;;;;22.40;43.60;;;;;;5133626;28;19976;-46
2022/01/18 13:03:34;;;;;;;;;;;22.40;43.60;;;;;;5134872;28;20298;-42
2022/01/18 13:06:06;;;;;;;;;;;22.40;43.60;;;;;;5134459;28;19923;-48
2022/01/18 13:08:41;;;;;;;;;;;22.40;43.60;;;;;;5134459;28;20443;-47
2022/01/18 13:11:08;;;;;;;;;;;22.40;43.60;;;;;;5134427;28;19924;-43
2022/01/18 13:13:36;;;;;;;;;;;22.40;43.60;;;;;;5133922;28;19971;-47
2022/01/18 13:22:53;;;;;;;;;;;22.40;43.60;;;;;;5133276;28;19929;-48
2022/01/18 13:27:03;;;;;;;;;;;22.40;43.50;;;;;;5134330;28;19971;-44
2022/01/18 13:29:31;;;;;;;;;;;22.40;43.60;;;;;;5133902;28;19977;-42
2022/01/18 13:32:15;;;;;;;;;;;22.40;43.60;;;;;;5133159;28;20436;-45
2022/01/18 13:34:44;;;;;;;;;;;22.40;43.50;;;;;;5134039;28;19984;-44
2022/01/18 13:37:12;;;;;;;;;;;22.40;43.60;;;;;;5134486;28;19934;-46
2022/01/18 13:39:48;;;;;;;;;;;22.40;43.60;;;;;;5134185;28;20378;-42
2022/01/18 13:42:16;;;;;;;;;;;22.40;43.50;;;;;;5134156;28;19923;-41
2022/01/18 13:45:02;;;;;;;;;;;22.40;43.50;;;;;;5133671;28;20022;-45
2022/01/18 13:47:36;;;;;;;;;;;22.40;43.50;;;;;;5132992;28;19949;-46
2022/01/18 13:50:03;;;;;;;;;;;22.40;43.50;;;;;;5134023;28;19978;-47
2022/01/18 13:52:31;;;;;;;;;;;22.40;43.50;;;;;;5134154;28;19996;-44
2022/01/18 13:54:59;;;;;;;;;;;22.40;43.50;;;;;;5134320;28;19966;-45
2022/01/18 13:57:26;;;;;;;;;;;22.40;43.50;;;;;;5134302;27;19978;-39
2022/01/18 13:59:53;;;;;;;;;;;22.40;43.60;;;;;;5136711;27;19923;-39
2022/01/18 14:02:21;;;;;;;;;;;22.40;43.60;;;;;;5136890;27;20014;-41
2022/01/18 14:05:05;;;;;;;;;;;22.40;43.60;;;;;;5137510;27;19950;-42
2022/01/18 14:07:32;;;;;;;;;;;22.40;43.60;;;;;;5137857;27;19966;-43
2022/01/18 14:09:59;;;;;;;;;;;22.40;43.60;;;;;;5137452;27;19928;-41
2022/01/18 14:12:31;;;;;;;;;;;22.40;43.60;;;;;;5137465;27;19923;-40
2022/01/18 14:14:58;;;;;;;;;;;22.40;43.60;;;;;;5136627;27;19984;-40
2022/01/18 14:17:26;;;;;;;;;;;22.40;43.60;;;;;;5136349;27;19976;-40
2022/01/18 14:20:04;;;;;;;;;;;22.40;43.60;;;;;;5136970;27;20390;-40
2022/01/18 14:22:34;;;;;;;;;;;22.40;43.70;;;;;;5137036;27;19930;-44
2022/01/18 14:25:04;;;;;;;;;;;22.40;43.70;;;;;;5137383;27;19931;-42
2022/01/18 14:27:34;;;;;;;;;;;22.40;43.70;;;;;;5137185;27;20305;-42
2022/01/18 14:30:08;;;;;;;;;;;22.40;43.70;;;;;;5136330;27;19923;-39
2022/01/18 14:32:36;;;;;;;;;;;22.40;43.80;;;;;;5135688;27;19930;-42
2022/01/18 14:35:05;;;;;;;;;;;22.40;43.80;;;;;;5137304;27;19930;-39
2022/01/18 14:37:34;;;;;;;;;;;22.40;43.80;;;;;;5137167;27;20289;-41
2022/01/18 14:40:03;;;;;;;;;;;22.40;43.80;;;;;;5118669;27;19977;-40
2022/01/18 14:42:40;;;;;;;;;;;22.40;43.80;;;;;;5137181;27;19928;-40
2022/01/18 14:45:29;;;;;;;;;;;22.40;43.80;;;;;;5136022;27;19930;-39
2022/01/18 14:47:55;;;;;;;;;;;22.40;43.80;;;;;;5135329;27;19968;-41
2022/01/18 14:50:22;;;;;;;;;;;22.40;43.80;;;;;;5137110;27;19924;-41
2022/01/18 14:52:51;;;;;;;;;;;22.40;43.80;;;;;;5136460;27;19924;-43
2022/01/18 14:55:19;;;;;;;;;;;22.40;43.80;;;;;;5136810;27;19946;-39
2022/01/18 14:57:47;;;;;;;;;;;22.40;43.80;;;;;;5136878;27;19923;-42
2022/01/18 15:00:15;;;;;;;;;;;22.40;43.80;;;;;;5136108;27;19923;-40
2022/01/18 15:02:42;;;;;;;;;;;22.40;43.80;;;;;;5135443;27;19923;-40
2022/01/18 15:05:09;;;;;;;;;;;22.40;43.80;;;;;;5136835;27;20014;-40
2022/01/18 15:07:38;;;;;;;;;;;22.40;43.80;;;;;;5136341;27;19928;-42
2022/01/18 15:10:06;;;;;;;;;;;22.40;43.80;;;;;;5135826;27;19924;-40
2022/01/18 15:12:34;;;;;;;;;;;22.40;43.80;;;;;;5118409;27;19923;-42
2022/01/18 15:15:01;;;;;;;;;;;22.40;43.80;;;;;;5117229;27;19927;-41
2022/01/18 15:17:28;;;;;;;;;;;22.40;43.80;;;;;;5117157;27;20017;-43
2022/01/18 15:19:55;;;;;;;;;;;22.40;44.40;;;;;;5135766;27;19924;-41
2022/01/18 15:22:22;;;;;;;;;;;22.40;43.80;;;;;;5135849;27;20383;-41
2022/01/18 15:24:49;;;;;;;;;;;22.40;43.80;;;;;;5117740;27;19923;-41
2022/01/18 15:27:17;;;;;;;;;;;22.40;43.80;;;;;;5135838;27;19924;-41
2022/01/18 15:29:46;;;;;;;;;;;22.40;43.80;;;;;;5135108;27;19948;-43
2022/01/18 15:32:13;;;;;;;;;;;22.40;43.90;;;;;;5134983;27;19931;-42
2022/01/18 15:34:41;;;;;;;;;;;22.40;43.90;;;;;;5135797;27;19927;-42
2022/01/18 15:37:10;;;;;;;;;;;22.40;43.90;;;;;;5136006;27;20010;-42
2022/01/18 15:39:37;;;;;;;;;;;22.40;44.00;;;;;;5135984;27;19965;-43
2022/01/18 15:42:04;;;;;;;;;;;22.40;44.00;;;;;;5135651;27;19974;-46
2022/01/18 15:44:33;;;;;;;;;;;22.40;44.00;;;;;;5134745;27;19927;-43
2022/01/18 15:47:00;;;;;;;;;;;22.40;44.00;;;;;;5134672;27;20315;-42
2022/01/18 15:49:27;;;;;;;;;;;22.40;44.00;;;;;;5135420;27;19976;-45
2022/01/18 15:51:54;;;;;;;;;;;22.30;43.90;;;;;;5135611;27;19927;-44
2022/01/18 15:54:21;;;;;;;;;;;22.40;44.00;;;;;;5135425;27;19999;-44